Keene, New Hampshire
Current Conditions -  °F | °C
As of 9:55 PM on Wednesday 22 Oct 2014 (Local Time) from KEEN Reporting Station
Overcast Overcast  
Wind Chill: 42°   Ceiling: 1700
Heat Index: 48°   Visibility: 10mi
Dew Point: 39°   Wind: 18mph
Humidity: 71%   Direction: 20°NNE
Pressure: 29.93"   Gusts: 24mph
Location:  42.93°N, 72.28°W
Report Text: KEEN 230155Z AUTO 02016G21KT 10SM OVC017 09/04 A2993 RMK AO1 P0001
Loading
Personal Weather Stations






























Interactive Weather Map
Tropical Storm Tracking
New forecast layout! Learn more

10-Day Weather Forecast

Advertisements
Track Severe Weather on mobile